createdAt,value
2018-01-10T00:00:01.805Z,0
2018-01-10T00:01:11.877Z,0
2018-01-10T00:02:21.937Z,0
2018-01-10T00:03:32.010Z,0
2018-01-10T00:04:42.114Z,0
2018-01-10T00:05:51.915Z,0
2018-01-10T00:07:01.967Z,0
2018-01-10T00:08:11.747Z,0
2018-01-10T00:09:21.798Z,0
2018-01-10T00:10:31.593Z,0
2018-01-10T00:11:41.657Z,0
2018-01-10T00:12:51.734Z,0
2018-01-10T00:14:01.802Z,0
2018-01-10T00:15:11.606Z,0
2018-01-10T00:16:21.400Z,0
2018-01-10T00:17:31.472Z,0
2018-01-10T00:18:41.258Z,0
2018-01-10T00:19:51.096Z,0
2018-01-10T00:21:01.143Z,0
2018-01-10T00:22:10.975Z,0
2018-01-10T00:23:21.016Z,0
2018-01-10T00:24:31.064Z,0
2018-01-10T00:25:41.115Z,0
2018-01-10T00:26:51.157Z,0
2018-01-10T00:28:00.952Z,0
2018-01-10T00:29:10.743Z,0
2018-01-10T00:30:20.583Z,0
2018-01-10T00:31:30.638Z,0
2018-01-10T00:32:40.711Z,0
2018-01-10T00:33:50.818Z,0
2018-01-10T00:35:00.870Z,0
2018-01-10T00:36:10.660Z,0
2018-01-10T00:37:20.735Z,0
2018-01-10T00:38:30.811Z,0
2018-01-10T00:39:40.611Z,0
2018-01-10T00:40:50.667Z,0
2018-01-10T00:42:00.716Z,0
2018-01-10T00:43:10.765Z,0
2018-01-10T00:44:20.832Z,0
2018-01-10T00:45:30.947Z,0
2018-01-10T00:46:40.756Z,0
2018-01-10T00:47:50.792Z,0
2018-01-10T00:49:00.861Z,0
2018-01-10T00:50:10.920Z,0
2018-01-10T00:51:21.039Z,0
2018-01-10T00:52:32.134Z,0
2018-01-10T00:53:42.171Z,0
2018-01-10T00:54:51.955Z,0
2018-01-10T00:56:02.001Z,0
2018-01-10T00:57:11.798Z,0
2018-01-10T00:58:21.845Z,0
2018-01-10T00:59:31.880Z,0
2018-01-10T01:00:41.940Z,0
2018-01-10T01:01:51.997Z,0
2018-01-10T01:03:02.070Z,0
2018-01-10T01:04:12.135Z,0
2018-01-10T01:05:22.183Z,0
2018-01-10T01:06:31.459Z,0
2018-01-10T01:07:41.306Z,0
2018-01-10T01:08:51.399Z,0
2018-01-10T01:10:01.462Z,0
2018-01-10T01:11:11.250Z,0
2018-01-10T01:12:21.297Z,0
2018-01-10T01:13:31.346Z,0
2018-01-10T01:14:41.392Z,0
2018-01-10T01:15:51.183Z,0
2018-01-10T01:17:01.245Z,0
2018-01-10T01:18:11.295Z,0
2018-01-10T01:19:20.995Z,0
2018-01-10T01:20:31.103Z,0
2018-01-10T01:21:41.128Z,0
2018-01-10T01:22:50.914Z,0
2018-01-10T01:24:01.325Z,0
2018-01-10T01:25:11.369Z,0
2018-01-10T01:26:21.156Z,0
2018-01-10T01:27:31.204Z,0
2018-01-10T01:28:41.256Z,0
2018-01-10T01:29:51.314Z,0
2018-01-10T01:31:01.370Z,0
2018-01-10T01:32:11.432Z,0
2018-01-10T01:33:21.517Z,0
2018-01-10T01:34:31.557Z,0
2018-01-10T01:35:41.359Z,0
2018-01-10T01:36:51.420Z,0
2018-01-10T01:38:01.252Z,0
2018-01-10T01:39:11.038Z,0
2018-01-10T01:40:21.093Z,0
2018-01-10T01:41:31.156Z,0
2018-01-10T01:42:40.946Z,0
2018-01-10T01:43:50.776Z,0
2018-01-10T01:45:00.813Z,0
2018-01-10T01:46:10.860Z,0
2018-01-10T01:47:20.401Z,0
2018-01-10T01:48:30.443Z,0
2018-01-10T01:49:40.500Z,0
2018-01-10T01:50:50.288Z,0
2018-01-10T01:52:00.349Z,0
2018-01-10T01:53:10.418Z,0
2018-01-10T01:54:20.495Z,0
2018-01-10T01:55:30.556Z,0
2018-01-10T01:56:40.340Z,0
2018-01-10T01:57:50.132Z,0
2018-01-10T01:58:59.935Z,0
2018-01-10T02:00:09.987Z,0
2018-01-10T02:01:19.846Z,0
2018-01-10T02:02:29.886Z,0
2018-01-10T02:03:39.923Z,0
2018-01-10T02:04:49.713Z,0
2018-01-10T02:05:59.765Z,0
2018-01-10T02:07:09.826Z,0
2018-01-10T02:08:19.878Z,0
2018-01-10T02:09:29.935Z,0
2018-01-10T02:10:39.974Z,0
2018-01-10T02:11:50.014Z,0
2018-01-10T02:13:00.080Z,0
2018-01-10T02:14:09.875Z,0
2018-01-10T02:15:19.925Z,0
2018-01-10T02:16:29.970Z,0
2018-01-10T02:17:40.025Z,0
2018-01-10T02:18:50.064Z,0
2018-01-10T02:19:59.845Z,0
2018-01-10T02:21:09.899Z,0
2018-01-10T02:22:19.692Z,0
2018-01-10T02:23:29.737Z,0
2018-01-10T02:24:39.574Z,0
2018-01-10T02:25:49.626Z,0
2018-01-10T02:26:59.687Z,0
2018-01-10T02:28:09.478Z,0
2018-01-10T02:29:19.046Z,0
2018-01-10T02:30:29.166Z,0
2018-01-10T02:31:38.719Z,0
2018-01-10T02:32:48.782Z,0
2018-01-10T02:33:58.829Z,0
2018-01-10T02:35:08.632Z,0
2018-01-10T02:36:18.730Z,0
2018-01-10T02:37:28.836Z,0
2018-01-10T02:38:38.885Z,0
2018-01-10T02:39:48.934Z,0
2018-01-10T02:40:58.976Z,0
2018-01-10T02:42:09.091Z,0
2018-01-10T02:43:18.891Z,0
2018-01-10T02:44:28.740Z,0
2018-01-10T02:45:38.531Z,0
2018-01-10T02:46:48.322Z,0
2018-01-10T02:47:58.120Z,0
2018-01-10T02:49:08.165Z,0
2018-01-10T02:50:18.217Z,0
2018-01-10T02:51:28.268Z,0
2018-01-10T02:52:38.330Z,0
2018-01-10T02:53:48.421Z,0
2018-01-10T02:54:58.475Z,0
2018-01-10T02:56:08.543Z,0
2018-01-10T02:58:28.715Z,0
2018-01-10T02:59:38.863Z,0
2018-01-10T03:00:48.912Z,0
2018-01-10T03:01:58.710Z,0
2018-01-10T03:34:17.438Z,0
2018-01-10T03:35:27.468Z,0
2018-01-10T03:36:37.512Z,0
2018-01-10T03:37:47.571Z,0
2018-01-10T03:38:57.609Z,0
2018-01-10T03:40:07.661Z,0
2018-01-10T03:41:17.703Z,0
2018-01-10T03:42:27.490Z,0
2018-01-10T03:43:37.571Z,0
2018-01-10T03:44:47.350Z,0
2018-01-10T03:45:57.402Z,0
2018-01-10T03:47:07.186Z,0
2018-01-10T03:48:16.992Z,0
2018-01-10T03:49:27.042Z,0
2018-01-10T03:50:37.086Z,0
2018-01-10T03:51:46.894Z,0
2018-01-10T03:52:56.691Z,0
2018-01-10T03:54:06.742Z,0
2018-01-10T03:55:16.793Z,0
2018-01-10T03:56:26.837Z,0
2018-01-10T03:57:37.031Z,0
2018-01-10T03:58:46.820Z,0
2018-01-10T03:59:56.862Z,0
2018-01-10T04:01:06.917Z,0
2018-01-10T04:02:16.966Z,0
2018-01-10T04:03:27.072Z,0
2018-01-10T04:04:37.134Z,0
2018-01-10T04:05:47.214Z,0
2018-01-10T04:06:56.738Z,0
2018-01-10T04:08:06.784Z,0
2018-01-10T04:09:16.622Z,0
2018-01-10T04:10:26.748Z,0
2018-01-10T04:11:36.803Z,0
2018-01-10T04:12:46.867Z,0
2018-01-10T04:13:57.001Z,0
2018-01-10T04:15:07.100Z,0
2018-01-10T04:16:17.147Z,0
2018-01-10T04:17:27.219Z,0
2018-01-10T04:21:51.833Z,0
2018-01-10T04:23:01.884Z,0
2018-01-10T04:24:11.943Z,0
2018-01-10T04:25:21.484Z,0
2018-01-10T04:26:31.575Z,0
2018-01-10T04:27:41.682Z,0
2018-01-10T04:28:51.475Z,0
2018-01-10T04:30:01.271Z,0
2018-01-10T04:31:11.322Z,0
2018-01-10T04:32:20.852Z,0
2018-01-10T04:33:30.637Z,0
2018-01-10T04:34:40.687Z,0
2018-01-10T04:35:50.746Z,0
2018-01-10T04:37:00.540Z,0
2018-01-10T04:38:10.573Z,0
2018-01-10T04:39:20.617Z,0
2018-01-10T04:40:30.681Z,0
2018-01-10T04:41:40.725Z,0
2018-01-10T04:42:50.527Z,0
2018-01-10T04:44:00.590Z,0
2018-01-10T04:45:10.701Z,0
2018-01-10T04:46:20.229Z,0
2018-01-10T04:47:30.287Z,0
2018-01-10T04:48:40.337Z,0
2018-01-10T04:49:49.603Z,0
2018-01-10T04:50:59.657Z,0
2018-01-10T04:52:09.711Z,0
2018-01-10T04:53:19.748Z,0
2018-01-10T04:54:29.811Z,0
2018-01-10T04:55:39.654Z,0
2018-01-10T04:56:49.450Z,0
2018-01-10T04:57:59.519Z,0
2018-01-10T04:59:09.552Z,0
2018-01-10T05:00:19.613Z,0
2018-01-10T05:01:29.403Z,0
2018-01-10T05:02:39.240Z,0
2018-01-10T05:03:49.029Z,0
2018-01-10T05:04:59.068Z,0
2018-01-10T05:06:09.114Z,0
2018-01-10T05:07:18.657Z,0
2018-01-10T05:08:28.484Z,0
2018-01-10T05:09:38.270Z,0
2018-01-10T05:10:48.319Z,0
2018-01-10T05:11:58.095Z,0
2018-01-10T05:13:08.159Z,0
2018-01-10T05:14:18.197Z,0
2018-01-10T05:15:28.238Z,0
2018-01-10T05:16:38.279Z,0
2018-01-10T05:17:47.804Z,0
2018-01-10T05:18:57.598Z,0
2018-01-10T05:20:07.762Z,0
2018-01-10T05:21:17.548Z,0
2018-01-10T05:22:27.615Z,0
2018-01-10T05:23:37.664Z,0
2018-01-10T05:24:47.460Z,0
2018-01-10T05:25:57.596Z,0
2018-01-10T05:27:07.647Z,0
2018-01-10T05:28:17.445Z,0
2018-01-10T05:29:26.991Z,0
2018-01-10T05:30:36.790Z,0
2018-01-10T05:31:47.335Z,0
2018-01-10T05:32:57.390Z,0
2018-01-10T05:34:07.452Z,0
2018-01-10T05:35:17.495Z,0
2018-01-10T05:36:27.551Z,0
2018-01-10T05:37:37.346Z,0
2018-01-10T05:38:47.139Z,0
2018-01-10T05:39:57.197Z,0
2018-01-10T05:41:06.990Z,0
2018-01-10T05:42:17.070Z,0
2018-01-10T05:43:26.627Z,0
2018-01-10T05:44:36.417Z,0
2018-01-10T05:45:46.205Z,0
2018-01-10T05:46:56.257Z,0
2018-01-10T05:48:05.783Z,0
2018-01-10T05:49:15.820Z,0
2018-01-10T05:50:25.606Z,0
2018-01-10T05:51:35.660Z,0
2018-01-10T05:52:45.725Z,0
2018-01-10T05:53:55.517Z,0
2018-01-10T05:55:05.633Z,0
2018-01-10T05:56:15.430Z,0
2018-01-10T05:57:25.226Z,0
2018-01-10T05:58:35.031Z,0
2018-01-10T05:59:45.092Z,0
2018-01-10T06:00:55.290Z,0
2018-01-10T06:02:05.356Z,0
2018-01-10T06:03:15.412Z,0
2018-01-10T06:04:25.477Z,0
2018-01-10T06:05:35.267Z,0
2018-01-10T06:06:45.308Z,0
2018-01-10T06:07:55.368Z,0
2018-01-10T06:09:05.424Z,0
2018-01-10T06:10:15.476Z,0
2018-01-10T06:11:25.526Z,0
2018-01-10T06:12:35.565Z,0
2018-01-10T06:13:45.659Z,0
2018-01-10T06:14:55.706Z,0
2018-01-10T06:16:05.495Z,0
2018-01-10T06:17:15.551Z,0
2018-01-10T06:18:25.771Z,0
2018-01-10T06:19:35.823Z,0
2018-01-10T06:20:45.889Z,0
2018-01-10T06:21:55.944Z,0
2018-01-10T06:23:05.745Z,0
2018-01-10T06:24:15.856Z,0
2018-01-10T06:25:25.660Z,0
2018-01-10T06:26:35.703Z,0
2018-01-10T06:27:45.749Z,0
2018-01-10T06:28:55.809Z,0
2018-01-10T06:30:05.651Z,0
2018-01-10T06:31:15.704Z,0
2018-01-10T06:32:25.777Z,0
2018-01-10T06:33:35.824Z,0
2018-01-10T06:34:45.875Z,0
2018-01-10T06:35:55.480Z,0
2018-01-10T06:37:05.584Z,0
2018-01-10T06:38:15.638Z,0
2018-01-10T06:39:25.694Z,0
2018-01-10T06:40:35.746Z,0
2018-01-10T06:41:46.058Z,0
2018-01-10T06:42:55.895Z,0
2018-01-10T06:44:05.700Z,0
2018-01-10T06:45:15.775Z,0
2018-01-10T06:46:25.569Z,0
2018-01-10T06:47:35.420Z,0
2018-01-10T06:48:45.509Z,0
2018-01-10T06:49:55.374Z,0
2018-01-10T06:51:05.439Z,0
2018-01-10T06:52:15.240Z,0
2018-01-10T06:53:24.859Z,0
2018-01-10T06:54:34.698Z,0
2018-01-10T06:55:44.765Z,0
2018-01-10T06:56:54.562Z,0
2018-01-10T06:58:04.631Z,0
2018-01-10T06:59:14.881Z,0
2018-01-10T07:00:24.667Z,0
2018-01-10T07:01:34.547Z,0
2018-01-10T07:02:44.365Z,0
2018-01-10T07:03:54.170Z,0
2018-01-10T07:05:04.283Z,0
2018-01-10T07:06:14.065Z,0
2018-01-10T07:07:24.212Z,0
2018-01-10T07:08:34.485Z,0
2018-01-10T07:09:44.296Z,0
2018-01-10T07:10:54.411Z,0
2018-01-10T07:12:04.474Z,0
2018-01-10T07:13:14.571Z,0
2018-01-10T07:14:24.372Z,0
2018-01-10T07:15:34.433Z,0
2018-01-10T07:16:44.565Z,0
2018-01-10T07:17:54.618Z,0
2018-01-10T07:19:04.729Z,0
2018-01-10T07:20:14.803Z,0
2018-01-10T07:21:24.849Z,0
2018-01-10T07:22:34.910Z,0
2018-01-10T07:23:44.990Z,0
2018-01-10T07:24:55.078Z,0
2018-01-10T07:26:04.645Z,0
2018-01-10T07:27:14.712Z,0
2018-01-10T07:28:24.266Z,0
2018-01-10T07:29:34.387Z,0
2018-01-10T07:30:45.199Z,0
2018-01-10T07:31:55.269Z,0
2018-01-10T07:33:06.095Z,5
2018-01-10T07:34:16.433Z,5
2018-01-10T07:35:26.486Z,5
2018-01-10T07:36:36.540Z,5
2018-01-10T07:37:46.598Z,5
2018-01-10T07:38:56.665Z,5
2018-01-10T07:40:06.785Z,5
2018-01-10T07:41:16.844Z,5
2018-01-10T07:42:26.914Z,5
2018-01-10T07:43:37.032Z,5
2018-01-10T07:44:47.091Z,5
2018-01-10T07:45:56.885Z,5
2018-01-10T07:47:06.946Z,5
2018-01-10T07:48:17.067Z,5
2018-01-10T07:49:27.150Z,5
2018-01-10T07:50:37.213Z,5
2018-01-10T07:51:47.509Z,5
2018-01-10T07:52:57.572Z,5
2018-01-10T07:54:07.637Z,5
2018-01-10T07:55:17.701Z,5
2018-01-10T07:56:27.765Z,5
2018-01-10T07:57:37.614Z,5
2018-01-10T07:58:47.684Z,5
2018-01-10T07:59:57.566Z,5
2018-01-10T08:01:07.638Z,5
2018-01-10T08:02:18.603Z,5
2018-01-10T08:03:28.401Z,5
2018-01-10T08:04:38.475Z,5
2018-01-10T08:05:48.536Z,5
2018-01-10T08:06:58.646Z,5
2018-01-10T08:08:08.710Z,5
2018-01-10T08:09:18.851Z,5
2018-01-10T08:10:28.679Z,5
2018-01-10T08:11:38.751Z,5
2018-01-10T08:12:48.849Z,5
2018-01-10T08:13:58.701Z,10
2018-01-10T08:15:08.857Z,10
2018-01-10T08:16:18.920Z,10
2018-01-10T08:17:28.987Z,10
2018-01-10T08:18:38.828Z,10
2018-01-10T08:19:48.630Z,10
2018-01-10T08:20:58.673Z,10
2018-01-10T08:22:08.490Z,10
2018-01-10T08:23:18.615Z,10
2018-01-10T08:24:28.686Z,10
2018-01-10T08:25:38.498Z,10
2018-01-10T08:26:48.576Z,10
2018-01-10T08:27:58.631Z,10
2018-01-10T08:29:08.440Z,10
2018-01-10T08:30:18.507Z,10
2018-01-10T08:31:28.588Z,10
2018-01-10T08:32:38.645Z,10
2018-01-10T08:33:48.741Z,10
2018-01-10T08:34:58.855Z,10
2018-01-10T08:36:08.923Z,10
2018-01-10T08:37:18.995Z,10
2018-01-10T08:38:29.750Z,10
2018-01-10T08:39:39.807Z,10
2018-01-10T08:40:51.125Z,10
2018-01-10T08:42:01.194Z,10
2018-01-10T08:43:11.253Z,10
2018-01-10T08:44:21.309Z,10
2018-01-10T08:45:31.980Z,10
2018-01-10T08:46:41.884Z,10
2018-01-10T08:47:52.003Z,15
2018-01-10T08:49:02.066Z,15
2018-01-10T08:50:11.869Z,15
2018-01-10T08:51:21.928Z,15
2018-01-10T08:52:32.018Z,10
2018-01-10T08:53:41.570Z,15
2018-01-10T08:54:51.632Z,15
2018-01-10T08:56:01.684Z,15
2018-01-10T08:57:11.765Z,10
2018-01-10T08:58:21.825Z,10
2018-01-10T08:59:31.629Z,10
2018-01-10T09:00:41.188Z,10
2018-01-10T09:01:51.249Z,10
2018-01-10T09:03:01.303Z,10
2018-01-10T09:04:11.418Z,10
2018-01-10T09:05:21.507Z,10
2018-01-10T09:06:31.580Z,10
2018-01-10T09:07:41.648Z,10
2018-01-10T09:08:52.511Z,10
2018-01-10T09:10:02.725Z,15
2018-01-10T09:11:12.826Z,15
2018-01-10T09:12:23.745Z,15
2018-01-10T09:13:33.812Z,15
2018-01-10T09:14:43.622Z,15
2018-01-10T09:15:53.688Z,15
2018-01-10T09:17:03.757Z,15
2018-01-10T09:18:13.819Z,15
2018-01-10T09:19:23.910Z,15
2018-01-10T09:20:33.974Z,15
2018-01-10T09:21:44.145Z,15
2018-01-10T09:22:54.030Z,15
2018-01-10T09:24:04.132Z,15
2018-01-10T09:25:14.274Z,15
2018-01-10T09:26:24.363Z,15
2018-01-10T09:27:34.513Z,15
2018-01-10T09:28:44.658Z,15
2018-01-10T09:29:54.301Z,10
2018-01-10T09:31:04.497Z,15
2018-01-10T09:32:14.708Z,15
2018-01-10T09:33:25.052Z,15
2018-01-10T09:34:35.325Z,15
2018-01-10T09:35:45.437Z,15
2018-01-10T09:36:55.659Z,15
2018-01-10T09:38:05.760Z,15
2018-01-10T09:39:15.679Z,15
2018-01-10T09:40:25.772Z,15
2018-01-10T09:41:35.678Z,15
2018-01-10T09:42:45.819Z,15
2018-01-10T09:43:55.680Z,15
2018-01-10T09:45:05.861Z,20
2018-01-10T09:46:15.737Z,15
2018-01-10T09:47:25.298Z,15
2018-01-10T09:48:35.394Z,20
2018-01-10T09:49:45.504Z,20
2018-01-10T09:50:55.767Z,20
2018-01-10T09:52:05.582Z,20
2018-01-10T09:53:16.554Z,20
2018-01-10T09:54:26.355Z,20
2018-01-10T09:55:36.432Z,15
2018-01-10T09:56:46.314Z,15
2018-01-10T09:57:56.433Z,15
2018-01-10T09:59:06.253Z,15
2018-01-10T10:00:16.588Z,15
2018-01-10T10:01:26.683Z,15
2018-01-10T10:02:36.764Z,15
2018-01-10T10:03:46.870Z,15
2018-01-10T10:04:56.969Z,15
2018-01-10T10:06:07.164Z,15
2018-01-10T10:07:17.269Z,15
2018-01-10T10:08:27.500Z,15
2018-01-10T10:09:55.160Z,15
2018-01-10T10:11:05.255Z,20
2018-01-10T10:12:15.072Z,20
2018-01-10T10:13:25.189Z,20
2018-01-10T10:14:35.280Z,20
2018-01-10T10:15:45.181Z,20
2018-01-10T10:16:55.308Z,20
2018-01-10T10:18:05.133Z,20
2018-01-10T10:19:15.215Z,25
2018-01-10T10:20:25.044Z,25
2018-01-10T10:21:35.185Z,25
2018-01-10T10:22:45.281Z,25
2018-01-10T10:23:55.433Z,25
2018-01-10T10:25:05.526Z,25
2018-01-10T10:26:15.627Z,25
2018-01-10T10:27:25.457Z,25
2018-01-10T10:28:35.302Z,25
2018-01-10T10:29:45.199Z,20
2018-01-10T10:30:55.316Z,25
2018-01-10T10:32:11.380Z,20
2018-01-10T10:33:21.472Z,20
2018-01-10T10:34:32.140Z,20
2018-01-10T10:35:42.246Z,20
2018-01-10T10:36:52.406Z,25
2018-01-10T10:38:02.537Z,25
2018-01-10T10:39:12.626Z,30
2018-01-10T10:40:22.481Z,30
2018-01-10T10:41:32.561Z,25
2018-01-10T10:42:42.711Z,25
2018-01-10T10:43:52.864Z,20
2018-01-10T10:45:02.758Z,25
2018-01-10T10:46:12.854Z,25
2018-01-10T10:47:22.676Z,30
2018-01-10T10:48:32.757Z,30
2018-01-10T10:49:42.836Z,30
2018-01-10T10:50:52.934Z,30
2018-01-10T10:52:03.000Z,30
2018-01-10T10:53:13.098Z,30
2018-01-10T10:54:22.640Z,30
2018-01-10T10:55:32.704Z,35
2018-01-10T10:56:42.807Z,35
2018-01-10T10:57:52.361Z,35
2018-01-10T10:59:02.434Z,30
2018-01-10T11:00:12.261Z,30
2018-01-10T11:01:22.118Z,30
2018-01-10T11:02:32.189Z,30
2018-01-10T11:03:42.274Z,25
2018-01-10T11:04:51.821Z,25
2018-01-10T11:06:01.641Z,25
2018-01-10T11:07:11.714Z,20
2018-01-10T11:08:21.500Z,20
2018-01-10T11:09:31.578Z,20
2018-01-10T11:10:41.392Z,20
2018-01-10T11:11:51.471Z,25
2018-01-10T11:13:01.356Z,25
2018-01-10T11:14:11.452Z,25
2018-01-10T11:15:21.526Z,25
2018-01-10T11:16:31.620Z,25
2018-01-10T11:17:41.167Z,25
2018-01-10T11:18:51.297Z,25
2018-01-10T11:20:01.419Z,25
2018-01-10T11:21:11.238Z,25
2018-01-10T11:22:21.334Z,25
2018-01-10T11:23:32.165Z,25
2018-01-10T11:24:42.296Z,25
2018-01-10T11:25:52.366Z,25
2018-01-10T11:27:02.201Z,25
2018-01-10T11:28:12.298Z,30
2018-01-10T11:29:22.392Z,30
2018-01-10T11:30:32.439Z,25
2018-01-10T11:31:42.272Z,30
2018-01-10T11:32:52.349Z,25
2018-01-10T11:34:02.447Z,25
2018-01-10T11:35:12.555Z,30
2018-01-10T11:36:22.679Z,30
2018-01-10T11:37:32.740Z,30
2018-01-10T11:38:42.548Z,25
2018-01-10T11:39:52.661Z,30
2018-01-10T11:41:02.514Z,30
2018-01-10T11:42:12.309Z,30
2018-01-10T11:43:22.365Z,25
2018-01-10T11:44:32.480Z,25
2018-01-10T11:45:42.345Z,25
2018-01-10T11:46:52.435Z,25
2018-01-10T11:48:02.554Z,20
2018-01-10T11:49:12.612Z,20
2018-01-10T11:50:22.684Z,20
2018-01-10T11:51:32.758Z,20
2018-01-10T11:52:42.827Z,20
2018-01-10T11:53:53.564Z,20
2018-01-10T11:55:03.630Z,20
2018-01-10T11:56:13.435Z,20
2018-01-10T11:57:24.006Z,20
2018-01-10T11:58:34.093Z,20
2018-01-10T11:59:44.156Z,20
2018-01-10T12:00:54.239Z,20
2018-01-10T12:02:04.518Z,20
2018-01-10T12:03:14.617Z,25
2018-01-10T12:04:24.432Z,25
2018-01-10T12:05:34.507Z,25
2018-01-10T12:06:44.572Z,30
2018-01-10T12:07:54.789Z,25
2018-01-10T12:09:04.860Z,25
2018-01-10T12:10:14.937Z,25
2018-01-10T12:11:25.029Z,25
2018-01-10T12:12:35.124Z,25
2018-01-10T12:13:44.963Z,25
2018-01-10T12:14:55.029Z,20
2018-01-10T12:16:05.078Z,20
2018-01-10T12:17:15.185Z,20
2018-01-10T12:18:25.271Z,20
2018-01-10T12:19:35.434Z,20
2018-01-10T12:20:46.498Z,20
2018-01-10T12:21:56.336Z,25
2018-01-10T12:23:06.154Z,25
2018-01-10T12:24:16.463Z,25
2018-01-10T12:25:26.539Z,25
2018-01-10T12:26:36.356Z,30
2018-01-10T12:27:46.156Z,35
2018-01-10T12:28:56.218Z,35
2018-01-10T12:30:06.364Z,35
2018-01-10T12:31:16.442Z,35
2018-01-10T12:32:26.292Z,40
2018-01-10T12:33:36.105Z,40
2018-01-10T12:34:45.958Z,40
2018-01-10T12:35:56.073Z,40
2018-01-10T12:37:06.153Z,45
2018-01-10T12:38:16.207Z,55
2018-01-10T12:39:26.298Z,50
2018-01-10T12:40:36.378Z,50
2018-01-10T12:41:46.448Z,45
2018-01-10T12:42:56.522Z,45
2018-01-10T12:44:06.600Z,45
2018-01-10T12:45:16.659Z,45
2018-01-10T12:46:26.776Z,40
2018-01-10T12:47:36.863Z,35
2018-01-10T12:48:46.946Z,35
2018-01-10T12:49:57.175Z,35
2018-01-10T12:51:07.554Z,35
2018-01-10T12:52:17.353Z,40
2018-01-10T12:53:27.144Z,40
2018-01-10T12:54:37.340Z,40
2018-01-10T12:55:47.150Z,40
2018-01-10T12:56:57.218Z,45
2018-01-10T12:58:07.053Z,45
2018-01-10T12:59:16.585Z,45
2018-01-10T13:00:26.432Z,45
2018-01-10T13:01:36.567Z,45
2018-01-10T13:02:46.367Z,40
2018-01-10T13:03:56.235Z,40
2018-01-10T13:05:06.367Z,40
2018-01-10T13:06:16.481Z,40
2018-01-10T13:07:26.660Z,40
2018-01-10T13:08:36.818Z,40
2018-01-10T13:09:46.886Z,45
2018-01-10T13:10:57.776Z,50
2018-01-10T13:12:07.679Z,45
2018-01-10T13:13:17.553Z,45
2018-01-10T13:14:27.622Z,40
2018-01-10T13:15:37.463Z,40
2018-01-10T13:16:47.858Z,40
2018-01-10T13:17:57.421Z,40
2018-01-10T13:19:07.313Z,40
2018-01-10T13:20:17.374Z,50
2018-01-10T13:21:27.477Z,45
2018-01-10T13:22:37.563Z,40
2018-01-10T13:23:47.123Z,40
2018-01-10T13:24:57.195Z,40
2018-01-10T13:26:07.304Z,40
2018-01-10T13:27:16.826Z,40
2018-01-10T13:28:26.919Z,40
2018-01-10T13:29:36.980Z,40
2018-01-10T13:30:47.105Z,45
2018-01-10T13:31:57.204Z,45
2018-01-10T13:33:07.298Z,40
2018-01-10T13:34:17.112Z,40
2018-01-10T13:35:27.210Z,40
2018-01-10T13:36:37.004Z,40
2018-01-10T13:37:46.801Z,40
2018-01-10T13:38:56.884Z,40
2018-01-10T13:40:06.961Z,40
2018-01-10T13:41:17.074Z,45
2018-01-10T13:42:26.893Z,40
2018-01-10T13:43:37.654Z,40
2018-01-10T13:44:47.445Z,40
2018-01-10T13:45:57.512Z,40
2018-01-10T13:47:07.665Z,35
2018-01-10T13:48:17.459Z,30
2018-01-10T13:49:27.281Z,30
2018-01-10T13:50:37.352Z,30
2018-01-10T13:51:47.433Z,25
2018-01-10T13:52:57.551Z,25
2018-01-10T13:54:07.634Z,25
2018-01-10T13:55:18.023Z,25
2018-01-10T13:56:28.072Z,25
2018-01-10T13:57:38.170Z,25
2018-01-10T13:58:48.021Z,20
2018-01-10T13:59:58.248Z,25
2018-01-10T14:01:08.297Z,20
2018-01-10T14:02:18.372Z,20
2018-01-10T14:03:27.918Z,20
2018-01-10T14:04:38.022Z,15
2018-01-10T14:05:48.064Z,15
2018-01-10T14:06:58.122Z,15
2018-01-10T14:08:07.907Z,15
2018-01-10T14:09:17.688Z,10
2018-01-10T14:10:27.755Z,10
2018-01-10T14:11:37.826Z,10
2018-01-10T14:12:47.919Z,10
2018-01-10T14:13:57.737Z,10
2018-01-10T14:15:07.783Z,10
2018-01-10T14:16:17.374Z,10
2018-01-10T14:17:27.419Z,10
2018-01-10T14:18:37.469Z,10
2018-01-10T14:19:47.038Z,10
2018-01-10T14:20:57.109Z,10
2018-01-10T14:22:06.655Z,10
2018-01-10T14:23:16.718Z,10
2018-01-10T14:24:26.771Z,10
2018-01-10T14:25:36.838Z,10
2018-01-10T14:26:46.915Z,10
2018-01-10T14:27:56.977Z,10
2018-01-10T14:29:07.060Z,10
2018-01-10T14:30:17.149Z,10
2018-01-10T14:31:27.015Z,10
2018-01-10T14:32:37.098Z,10
2018-01-10T14:33:47.216Z,10
2018-01-10T14:34:57.296Z,5
2018-01-10T14:36:07.354Z,5
2018-01-10T14:37:17.440Z,5
2018-01-10T14:38:27.549Z,5
2018-01-10T14:39:37.613Z,5
2018-01-10T14:40:47.410Z,5
2018-01-10T14:41:57.207Z,5
2018-01-10T14:43:07.328Z,5
2018-01-10T14:44:17.389Z,5
2018-01-10T14:45:26.928Z,5
2018-01-10T14:46:36.723Z,5
2018-01-10T14:47:46.510Z,5
2018-01-10T14:48:56.341Z,5
2018-01-10T14:50:05.865Z,5
2018-01-10T14:51:15.918Z,5
2018-01-10T14:52:25.978Z,5
2018-01-10T14:53:36.046Z,5
2018-01-10T14:54:45.903Z,5
2018-01-10T14:55:55.949Z,5
2018-01-10T14:57:06.002Z,0
2018-01-10T14:58:15.808Z,0
2018-01-10T14:59:25.864Z,0
2018-01-10T15:00:35.992Z,0
2018-01-10T15:01:46.064Z,0
2018-01-10T15:02:56.628Z,0
2018-01-10T15:04:06.421Z,0
2018-01-10T15:05:16.219Z,0
2018-01-10T15:06:26.278Z,0
2018-01-10T15:07:35.808Z,0
2018-01-10T15:08:45.880Z,0
2018-01-10T15:09:55.658Z,0
2018-01-10T15:11:05.740Z,0
2018-01-10T15:12:16.074Z,0
2018-01-10T15:13:26.133Z,0
2018-01-10T15:14:36.208Z,0
2018-01-10T15:15:46.253Z,0
2018-01-10T15:16:56.317Z,0
2018-01-10T15:18:06.444Z,0
2018-01-10T15:19:16.292Z,0
2018-01-10T15:20:26.357Z,0
2018-01-10T15:21:36.407Z,0
2018-01-10T15:22:46.187Z,0
2018-01-10T15:23:56.260Z,0
2018-01-10T15:25:06.350Z,0
2018-01-10T15:26:16.414Z,0
2018-01-10T15:27:25.937Z,0
2018-01-10T15:28:35.992Z,0
2018-01-10T15:29:45.900Z,0
2018-01-10T15:30:55.945Z,0
2018-01-10T15:32:05.761Z,0
2018-01-10T15:33:16.878Z,0
2018-01-10T15:34:26.935Z,0
2018-01-10T15:35:36.727Z,0
2018-01-10T15:36:46.835Z,0
2018-01-10T15:37:56.874Z,0
2018-01-10T15:39:06.944Z,0
2018-01-10T15:40:17.010Z,0
2018-01-10T15:41:26.832Z,0
2018-01-10T15:42:36.902Z,0
2018-01-10T15:43:46.750Z,0
2018-01-10T15:44:56.797Z,0
2018-01-10T15:46:06.877Z,0
2018-01-10T15:47:16.464Z,0
2018-01-10T15:48:26.534Z,0
2018-01-10T15:49:36.592Z,0
2018-01-10T15:50:46.415Z,0
2018-01-10T15:51:56.235Z,0
2018-01-10T15:53:06.072Z,0
2018-01-10T15:54:16.126Z,0
2018-01-10T15:55:26.202Z,0
2018-01-10T15:56:36.280Z,0
2018-01-10T15:57:47.358Z,0
2018-01-10T15:58:57.497Z,0
2018-01-10T16:00:07.324Z,0
2018-01-10T16:01:17.387Z,0
2018-01-10T16:02:27.456Z,0
2018-01-10T16:03:37.532Z,0
2018-01-10T16:04:47.625Z,0
2018-01-10T16:05:57.693Z,0
2018-01-10T16:07:08.391Z,0
2018-01-10T16:08:18.214Z,0
2018-01-10T16:09:28.018Z,0
2018-01-10T16:10:37.898Z,0
2018-01-10T16:11:47.686Z,0
2018-01-10T16:12:57.758Z,0
2018-01-10T16:14:07.815Z,0
2018-01-10T16:15:17.876Z,0
2018-01-10T16:16:28.044Z,0
2018-01-10T16:17:37.854Z,0
2018-01-10T16:18:48.010Z,0
2018-01-10T16:19:58.069Z,0
2018-01-10T16:21:08.134Z,0
2018-01-10T16:22:18.277Z,0
2018-01-10T16:23:28.409Z,0
2018-01-10T16:24:38.491Z,0
2018-01-10T16:25:48.564Z,0
2018-01-10T16:26:58.377Z,0
2018-01-10T16:28:08.242Z,0
2018-01-10T16:29:18.304Z,0
2018-01-10T16:30:28.369Z,0
2018-01-10T16:31:38.433Z,0
2018-01-10T16:32:48.561Z,0
2018-01-10T16:33:58.676Z,0
2018-01-10T16:35:08.769Z,0
2018-01-10T16:36:18.859Z,0
2018-01-10T16:37:28.993Z,0
2018-01-10T16:38:38.837Z,0
2018-01-10T16:39:48.971Z,0
2018-01-10T16:40:59.028Z,0
2018-01-10T16:42:08.843Z,0
2018-01-10T16:43:18.400Z,0
2018-01-10T16:44:28.197Z,0
2018-01-10T16:45:38.313Z,0
2018-01-10T16:46:48.136Z,0
2018-01-10T16:47:58.221Z,0
2018-01-10T16:49:08.308Z,0
2018-01-10T16:50:18.404Z,0
2018-01-10T16:51:28.545Z,0
2018-01-10T16:52:38.741Z,0
2018-01-10T16:53:48.831Z,0
2018-01-10T16:54:58.899Z,0
2018-01-10T16:56:08.977Z,0
2018-01-10T16:57:20.137Z,0
2018-01-10T16:58:30.196Z,0
2018-01-10T16:59:40.984Z,0
2018-01-10T17:00:50.810Z,0
2018-01-10T17:02:00.682Z,0
2018-01-10T17:03:10.754Z,0
2018-01-10T17:04:20.842Z,0
2018-01-10T17:05:31.623Z,0
2018-01-10T17:06:41.693Z,0
2018-01-10T17:07:51.790Z,0
2018-01-10T17:09:01.916Z,0
2018-01-10T17:10:12.010Z,0
2018-01-10T17:11:21.849Z,0
2018-01-10T17:12:31.656Z,0
2018-01-10T17:13:42.228Z,0
2018-01-10T17:14:53.097Z,0
2018-01-10T17:16:03.190Z,0
2018-01-10T17:17:13.312Z,0
2018-01-10T17:18:23.414Z,0
2018-01-10T17:19:32.982Z,0
2018-01-10T17:20:43.112Z,0
2018-01-10T17:21:53.211Z,0
2018-01-10T17:23:03.347Z,0
2018-01-10T17:24:13.416Z,0
2018-01-10T17:25:23.487Z,0
2018-01-10T17:26:33.369Z,0
2018-01-10T17:27:43.461Z,0
2018-01-10T17:28:54.613Z,0
2018-01-10T17:30:04.481Z,0
2018-01-10T17:31:14.580Z,0
2018-01-10T17:32:24.716Z,0
2018-01-10T17:33:34.564Z,0
2018-01-10T17:34:44.896Z,0
2018-01-10T17:35:54.714Z,0
2018-01-10T17:37:04.819Z,0